Time;durP1;ratioP1;P1;durP2;ratioP2;P2;SDS_P1;SDS_P2;PMS_P1;PMS_P2;Temp;Humidity;BMP_temperature;BMP_pressure;BME280_temperature;BME280_humidity;BME280_pressure;Samples;Min_cycle;Max_cycle;Signal;HPM_P1;HPM_P2
2023/10/22 00:01:14;;;;;;;11.17;2.63;;;26.30;41.70;;;;;;5048311;28;20253;-70
2023/10/22 00:03:43;;;;;;;8.03;2.97;;;26.60;41.70;;;;;;5048239;28;20187;-69
2023/10/22 00:06:10;;;;;;;6.23;2.70;;;27.00;40.40;;;;;;5047960;28;20184;-71
2023/10/22 00:08:38;;;;;;;10.63;2.60;;;27.00;40.50;;;;;;5048966;28;20531;-69
2023/10/22 00:11:05;;;;;;;9.20;2.63;;;27.30;40.00;;;;;;5045544;28;20288;-75
2023/10/22 00:13:33;;;;;;;9.33;3.03;;;27.30;39.60;;;;;;5047558;28;20184;-69
2023/10/22 00:16:01;;;;;;;8.70;2.90;;;27.30;38.90;;;;;;5047690;28;20185;-71
2023/10/22 00:18:28;;;;;;;9.70;2.83;;;27.30;38.80;;;;;;5060541;28;20242;-71
2023/10/22 00:20:55;;;;;;;8.33;2.73;;;27.40;38.70;;;;;;5054217;28;20183;-71
2023/10/22 00:23:22;;;;;;;8.03;2.70;;;27.30;38.20;;;;;;5054929;28;20172;-68
2023/10/22 00:25:53;;;;;;;9.23;2.33;;;27.60;38.30;;;;;;5055178;28;20191;-74
2023/10/22 00:28:20;;;;;;;10.43;2.70;;;27.80;38.30;;;;;;5055897;28;20638;-73
2023/10/22 00:30:51;;;;;;;8.13;2.50;;;27.90;38.10;;;;;;5050373;28;20641;-74
2023/10/22 00:33:18;;;;;;;6.50;2.77;;;28.10;37.30;;;;;;5053488;28;20184;-75
2023/10/22 00:35:58;;;;;;;7.83;2.63;;;27.90;37.30;;;;;;5055917;28;20223;-75
2023/10/22 00:38:26;;;;;;;7.93;2.60;;;27.90;36.50;;;;;;5056866;28;20203;-70
2023/10/22 00:40:53;;;;;;;7.57;3.07;;;27.80;36.90;;;;;;5053678;28;20622;-70
2023/10/22 00:43:21;;;;;;;6.00;2.60;;;27.80;37.90;;;;;;5051032;28;20180;-73
2023/10/22 00:45:49;;;;;;;6.00;2.60;;;28.00;37.20;;;;;;5039357;28;20255;-68
2023/10/22 00:48:17;;;;;;;9.73;2.63;;;27.90;37.20;;;;;;5046183;28;20222;-71
2023/10/22 00:50:45;;;;;;;8.97;2.67;;;28.00;37.20;;;;;;5046847;28;20223;-70
2023/10/22 00:53:17;;;;;;;10.07;2.90;;;28.30;37.00;;;;;;5051669;28;20229;-68
2023/10/22 00:55:47;;;;;;;8.27;2.80;;;28.30;35.90;;;;;;5053981;28;20188;-71
2023/10/22 00:58:17;;;;;;;7.20;2.80;;;28.00;36.30;;;;;;5048932;28;20216;-70
2023/10/22 01:00:45;;;;;;;9.53;2.87;;;28.30;35.90;;;;;;5054208;28;20180;-68
2023/10/22 01:03:13;;;;;;;7.27;2.37;;;28.50;35.80;;;;;;5051977;28;20203;-70
2023/10/22 01:05:40;;;;;;;7.20;2.70;;;28.50;35.40;;;;;;5050428;28;20223;-69
2023/10/22 01:08:08;;;;;;;9.73;2.97;;;28.20;36.30;;;;;;5052745;28;20702;-70
2023/10/22 01:10:35;;;;;;;10.47;3.13;;;28.40;35.80;;;;;;5054918;28;20211;-69
2023/10/22 01:13:03;;;;;;;8.57;3.03;;;28.60;35.70;;;;;;5050627;28;20172;-75
2023/10/22 01:15:31;;;;;;;7.43;2.63;;;28.80;35.30;;;;;;5056289;28;20218;-69
2023/10/22 01:17:58;;;;;;;8.00;2.50;;;28.60;35.90;;;;;;5054431;28;20204;-68
2023/10/22 01:20:25;;;;;;;8.33;2.97;;;29.00;35.70;;;;;;5055806;28;20608;-66
2023/10/22 01:22:53;;;;;;;6.97;2.37;;;29.20;35.10;;;;;;5053868;28;20283;-69
2023/10/22 01:25:20;;;;;;;11.33;2.80;;;29.50;34.60;;;;;;5054948;28;20176;-71
2023/10/22 01:27:47;;;;;;;13.40;3.23;;;29.00;38.30;;;;;;5053754;28;20247;-68
2023/10/22 01:30:15;;;;;;;13.33;3.10;;;29.10;40.30;;;;;;5055447;28;20211;-72
2023/10/22 01:32:46;;;;;;;14.77;3.63;;;28.80;40.80;;;;;;5037395;28;20189;-69
2023/10/22 01:35:13;;;;;;;12.80;3.30;;;28.80;41.20;;;;;;5055272;28;20251;-68
2023/10/22 01:37:40;;;;;;;7.77;2.90;;;29.10;40.10;;;;;;5053837;28;20264;-66
2023/10/22 01:40:08;;;;;;;9.70;3.10;;;29.20;39.20;;;;;;5051695;28;20192;-69
2023/10/22 01:42:36;;;;;;;18.67;2.97;;;29.10;38.80;;;;;;5044895;28;20180;-69
2023/10/22 01:45:06;;;;;;;10.77;2.73;;;29.10;38.80;;;;;;5049558;28;20214;-70
2023/10/22 01:47:34;;;;;;;7.97;3.13;;;28.90;38.30;;;;;;5051411;28;20664;-72
2023/10/22 01:50:04;;;;;;;10.77;2.73;;;28.80;39.50;;;;;;5045168;28;20176;-69
2023/10/22 01:52:32;;;;;;;8.50;2.33;;;29.20;38.50;;;;;;5048095;28;20638;-71
2023/10/22 01:54:59;;;;;;;12.83;3.13;;;29.30;37.50;;;;;;5079433;28;20271;-68
2023/10/22 01:57:27;;;;;;;10.97;2.53;;;29.20;37.10;;;;;;5049734;28;20698;-71
2023/10/22 01:59:55;;;;;;;11.23;2.77;;;29.30;37.30;;;;;;5046369;28;20665;-65
2023/10/22 02:02:23;;;;;;;7.00;2.53;;;29.30;37.60;;;;;;5045798;28;20451;-73
2023/10/22 02:04:50;;;;;;;7.87;2.40;;;29.40;37.80;;;;;;5048075;28;20180;-70
2023/10/22 02:07:17;;;;;;;8.53;2.53;;;29.60;37.00;;;;;;5048097;28;20179;-70
2023/10/22 02:09:45;;;;;;;9.87;2.73;;;29.40;37.30;;;;;;5051892;28;20522;-70
2023/10/22 02:12:12;;;;;;;10.87;2.80;;;29.20;38.20;;;;;;5048257;28;20180;-71
2023/10/22 02:14:39;;;;;;;9.13;2.73;;;29.10;39.10;;;;;;5048231;28;20245;-68
2023/10/22 02:17:07;;;;;;;13.57;3.20;;;28.90;39.50;;;;;;5051648;28;20180;-71
2023/10/22 02:19:35;;;;;;;7.67;2.40;;;29.30;38.80;;;;;;5052628;28;20187;-73
2023/10/22 02:22:02;;;;;;;10.27;2.47;;;29.30;39.20;;;;;;5051817;28;20673;-70
2023/10/22 02:24:29;;;;;;;7.97;2.90;;;29.00;40.10;;;;;;5049172;28;20184;-68
2023/10/22 02:26:57;;;;;;;7.80;2.10;;;29.00;39.60;;;;;;5047357;28;20259;-71
2023/10/22 02:29:26;;;;;;;9.70;2.47;;;29.40;39.20;;;;;;5043894;28;20220;-69
2023/10/22 02:31:53;;;;;;;5.80;2.50;;;29.10;38.70;;;;;;5052246;28;20188;-72
2023/10/22 02:34:21;;;;;;;12.80;2.67;;;29.30;37.80;;;;;;5045270;28;20240;-73
2023/10/22 02:36:49;;;;;;;10.20;2.47;;;29.10;39.30;;;;;;5047797;28;20673;-70
2023/10/22 02:39:16;;;;;;;9.53;3.07;;;28.90;40.60;;;;;;5047877;28;20192;-71
2023/10/22 02:41:45;;;;;;;10.00;2.20;;;29.20;40.80;;;;;;5045312;28;20164;-69
2023/10/22 02:44:13;;;;;;;9.37;2.60;;;28.80;40.00;;;;;;5046085;28;20184;-72
2023/10/22 02:46:40;;;;;;;6.70;2.03;;;29.60;39.70;;;;;;5048437;28;20245;-68
2023/10/22 02:49:11;;;;;;;9.60;2.37;;;29.80;37.40;;;;;;5050044;28;20189;-68
2023/10/22 02:51:38;;;;;;;7.10;2.53;;;30.10;36.40;;;;;;5041573;28;20192;-69
2023/10/22 02:54:06;;;;;;;9.47;2.23;;;30.20;38.00;;;;;;5049711;28;20191;-70
2023/10/22 02:56:33;;;;;;;10.70;2.40;;;30.30;38.60;;;;;;5048234;28;20215;-68
2023/10/22 02:59:00;;;;;;;4.50;1.92;;;30.50;38.00;;;;;;5048135;28;20227;-69
2023/10/22 03:01:29;;;;;;;7.20;1.92;;;30.40;37.40;;;;;;5050094;28;20180;-67
2023/10/22 03:03:56;;;;;;;7.22;1.83;;;30.60;36.90;;;;;;5042806;28;20196;-68
2023/10/22 03:06:23;;;;;;;10.17;2.00;;;30.90;36.50;;;;;;5054342;28;20192;-68
2023/10/22 03:08:50;;;;;;;8.47;2.40;;;30.70;36.40;;;;;;5044847;28;20227;-71
2023/10/22 03:11:19;;;;;;;6.00;2.08;;;29.80;37.70;;;;;;5050152;28;20249;-67
2023/10/22 03:13:49;;;;;;;5.47;1.77;;;29.60;37.60;;;;;;5049584;28;20172;-70
2023/10/22 03:16:16;;;;;;;12.65;2.78;;;29.60;37.40;;;;;;5049937;28;20187;-68
2023/10/22 03:18:45;;;;;;;4.30;1.58;;;30.10;36.90;;;;;;5047824;28;20302;-76
2023/10/22 03:21:20;;;;;;;7.25;2.15;;;30.60;35.80;;;;;;5049957;28;20237;-70
2023/10/22 03:23:50;;;;;;;10.00;2.33;;;30.50;35.60;;;;;;5048572;28;20230;-73
2023/10/22 03:26:20;;;;;;;11.07;2.05;;;30.60;35.30;;;;;;5046091;28;20237;-73
2023/10/22 03:28:50;;;;;;;6.65;2.00;;;31.30;34.30;;;;;;5046585;28;20220;-75
2023/10/22 03:31:18;;;;;;;10.07;2.03;;;31.50;33.30;;;;;;5052142;28;20283;-76
2023/10/22 03:33:46;;;;;;;8.32;1.90;;;31.90;33.00;;;;;;5051170;28;20207;-69
2023/10/22 03:36:15;;;;;;;5.53;1.80;;;32.30;31.50;;;;;;5048091;28;20179;-70
2023/10/22 03:38:43;;;;;;;11.75;2.53;;;32.10;31.90;;;;;;5050050;28;20215;-73
2023/10/22 03:41:10;;;;;;;7.07;2.13;;;31.90;33.00;;;;;;5042789;28;20175;-70
2023/10/22 03:43:38;;;;;;;7.20;2.85;;;32.00;33.40;;;;;;5050620;28;20253;-70
2023/10/22 03:46:05;;;;;;;5.05;1.95;;;31.00;34.70;;;;;;5049141;28;20179;-68
2023/10/22 03:48:32;;;;;;;7.25;2.13;;;31.00;34.30;;;;;;5051720;28;20190;-69
2023/10/22 03:51:00;;;;;;;5.03;1.98;;;31.60;33.40;;;;;;5048138;28;20647;-72
2023/10/22 03:53:27;;;;;;;4.65;1.92;;;32.50;31.30;;;;;;5049340;28;20179;-70
2023/10/22 03:55:55;;;;;;;9.45;2.35;;;32.40;31.20;;;;;;5048380;28;20187;-71
2023/10/22 03:58:25;;;;;;;12.95;2.70;;;31.90;34.40;;;;;;5048593;28;20231;-69
2023/10/22 04:00:54;;;;;;;8.00;2.08;;;31.70;36.70;;;;;;5043633;28;20186;-71
2023/10/22 04:03:22;;;;;;;7.38;2.08;;;31.30;36.00;;;;;;5039000;28;20249;-69
2023/10/22 04:05:59;;;;;;;6.93;2.22;;;30.60;36.20;;;;;;5047625;28;20192;-71
2023/10/22 04:12:08;;;;;;;6.55;1.98;;;30.80;35.90;;;;;;5038585;28;20242;-72
2023/10/22 04:18:52;;;;;;;6.32;2.17;;;30.10;37.20;;;;;;5045983;28;20219;-69
2023/10/22 04:21:20;;;;;;;8.38;1.92;;;30.80;37.00;;;;;;5035983;28;20188;-74
2023/10/22 04:23:47;;;;;;;9.52;2.22;;;31.00;36.50;;;;;;5038257;28;20277;-72
2023/10/22 04:26:15;;;;;;;14.45;2.45;;;30.70;37.20;;;;;;5042878;28;20187;-76
2023/10/22 04:28:43;;;;;;;8.90;2.20;;;30.60;38.90;;;;;;5060490;28;20187;-73
2023/10/22 04:31:11;;;;;;;7.32;2.22;;;30.80;37.70;;;;;;5067355;28;20171;-69
2023/10/22 04:33:38;;;;;;;8.32;2.28;;;30.70;39.00;;;;;;5064034;28;20198;-72
2023/10/22 04:36:14;;;;;;;9.77;2.45;;;31.20;37.10;;;;;;5058133;28;20215;-71
2023/10/22 04:38:41;;;;;;;13.10;2.85;;;30.80;38.50;;;;;;5049980;28;20214;-69
2023/10/22 04:41:14;;;;;;;10.35;2.53;;;30.30;40.10;;;;;;5059579;28;20242;-73
2023/10/22 04:43:42;;;;;;;14.88;2.40;;;30.50;40.00;;;;;;5045097;28;20187;-71
2023/10/22 04:46:09;;;;;;;12.65;2.70;;;30.30;40.20;;;;;;5053446;28;20192;-72
2023/10/22 04:48:37;;;;;;;8.75;2.47;;;30.60;40.40;;;;;;5056053;28;20229;-70
2023/10/22 04:51:09;;;;;;;8.02;2.38;;;30.90;39.90;;;;;;5059754;28;20187;-70
2023/10/22 04:53:36;;;;;;;9.52;1.88;;;29.90;41.10;;;;;;5054905;28;20226;-71
2023/10/22 04:56:05;;;;;;;7.10;2.22;;;30.40;40.10;;;;;;5055798;28;20263;-71
2023/10/22 04:58:33;;;;;;;8.32;2.25;;;29.80;41.70;;;;;;5060859;28;20208;-69
2023/10/22 05:01:00;;;;;;;9.38;2.47;;;29.30;43.80;;;;;;5071310;28;20179;-72
2023/10/22 05:03:27;;;;;;;7.68;2.33;;;29.60;42.10;;;;;;5069555;28;20237;-71
2023/10/22 05:05:55;;;;;;;12.90;2.33;;;29.40;42.70;;;;;;5059302;28;20184;-72
2023/10/22 05:08:23;;;;;;;11.00;2.47;;;29.80;42.20;;;;;;5053736;28;20522;-71
2023/10/22 05:10:51;;;;;;;11.88;2.35;;;29.70;42.90;;;;;;5054537;28;20537;-70
2023/10/22 05:13:18;;;;;;;11.02;2.20;;;29.70;42.60;;;;;;5054164;28;20182;-70
2023/10/22 05:15:51;;;;;;;7.15;2.17;;;29.10;43.80;;;;;;5055378;28;20168;-72
2023/10/22 05:18:19;;;;;;;10.70;2.60;;;29.00;43.30;;;;;;5053716;28;20211;-73
2023/10/22 05:20:46;;;;;;;7.30;1.90;;;29.00;43.20;;;;;;5052789;28;20192;-69
2023/10/22 05:23:14;;;;;;;8.77;2.08;;;29.30;42.40;;;;;;5053341;28;20180;-71
2023/10/22 05:25:41;;;;;;;8.48;2.10;;;29.40;42.10;;;;;;5055763;28;20176;-72
2023/10/22 05:28:09;;;;;;;7.93;2.20;;;30.30;40.30;;;;;;5055403;28;20175;-70
2023/10/22 05:30:36;;;;;;;13.18;2.92;;;30.30;39.80;;;;;;5052387;28;20191;-70
2023/10/22 05:33:03;;;;;;;6.72;2.25;;;30.40;38.70;;;;;;5055362;28;20188;-70
2023/10/22 05:35:34;;;;;;;7.07;2.10;;;30.10;38.80;;;;;;5055281;28;20262;-73
2023/10/22 05:38:02;;;;;;;7.50;2.00;;;30.50;38.10;;;;;;5054927;28;20247;-69
2023/10/22 05:40:35;;;;;;;7.45;2.10;;;30.10;38.30;;;;;;5055197;28;20198;-70
2023/10/22 05:43:03;;;;;;;12.23;2.25;;;29.90;37.60;;;;;;5054488;28;20191;-69
2023/10/22 05:45:30;;;;;;;8.57;2.08;;;29.00;38.10;;;;;;5086961;28;20650;-70
2023/10/22 05:47:58;;;;;;;5.88;2.17;;;29.60;37.30;;;;;;5054947;28;20179;-69
2023/10/22 05:50:25;;;;;;;7.57;2.17;;;30.30;35.00;;;;;;5054845;28;20638;-70
2023/10/22 05:52:52;;;;;;;6.57;1.55;;;30.80;34.60;;;;;;5052540;28;20184;-72
2023/10/22 05:55:20;;;;;;;7.13;1.95;;;30.70;33.00;;;;;;5054755;28;20486;-70
2023/10/22 05:57:47;;;;;;;10.47;2.23;;;29.60;33.90;;;;;;5052421;28;20366;-69
2023/10/22 06:00:18;;;;;;;7.85;1.90;;;30.00;33.80;;;;;;5052176;28;20183;-71
2023/10/22 06:02:45;;;;;;;10.05;1.75;;;30.10;33.30;;;;;;5052404;28;20198;-68
2023/10/22 06:05:12;;;;;;;6.95;1.90;;;30.10;32.90;;;;;;5053269;28;20180;-71
2023/10/22 06:07:40;;;;;;;13.32;1.85;;;30.30;33.00;;;;;;5053772;28;20662;-68
2023/10/22 06:10:10;;;;;;;4.70;2.00;;;28.30;36.70;;;;;;5054707;28;20207;-71
2023/10/22 06:12:37;;;;;;;10.50;2.20;;;29.30;36.60;;;;;;5053981;28;20275;-71
2023/10/22 06:15:05;;;;;;;12.82;2.53;;;29.30;38.30;;;;;;5052213;28;20572;-70
2023/10/22 06:17:32;;;;;;;8.35;2.20;;;29.40;38.90;;;;;;5050553;28;20212;-70
2023/10/22 06:20:00;;;;;;;10.77;2.70;;;29.70;38.80;;;;;;5043414;28;20707;-72
2023/10/22 06:22:27;;;;;;;8.50;2.15;;;29.70;38.90;;;;;;5053240;28;20633;-71
2023/10/22 06:24:54;;;;;;;10.52;2.60;;;29.90;39.60;;;;;;5053176;28;20547;-72
2023/10/22 06:27:21;;;;;;;13.70;2.53;;;28.70;42.10;;;;;;5085719;28;20229;-69
2023/10/22 06:29:49;;;;;;;16.27;2.33;;;29.40;40.90;;;;;;5048519;28;20677;-71
2023/10/22 06:32:16;;;;;;;8.25;2.45;;;29.40;40.70;;;;;;5052709;28;20173;-72
2023/10/22 06:34:44;;;;;;;11.80;2.37;;;29.70;40.50;;;;;;5048140;28;20697;-72
2023/10/22 06:37:11;;;;;;;9.25;2.53;;;28.90;40.20;;;;;;5055053;28;20168;-69
2023/10/22 06:39:39;;;;;;;8.03;2.10;;;28.70;40.50;;;;;;5070641;28;20183;-68
2023/10/22 06:42:06;;;;;;;6.53;2.15;;;29.10;41.10;;;;;;5059543;28;20257;-71
2023/10/22 06:44:36;;;;;;;6.93;2.27;;;30.00;38.70;;;;;;5069851;28;20245;-69
2023/10/22 06:47:04;;;;;;;19.27;2.40;;;29.50;38.20;;;;;;5058497;28;20751;-72
2023/10/22 06:49:31;;;;;;;11.40;2.43;;;29.30;38.60;;;;;;5051436;28;21511;-68
2023/10/22 06:51:59;;;;;;;9.52;2.30;;;29.60;37.90;;;;;;5050850;28;20184;-70
2023/10/22 06:54:27;;;;;;;8.05;2.42;;;29.40;38.10;;;;;;5050259;28;20187;-71
2023/10/22 06:56:54;;;;;;;12.40;2.50;;;29.30;38.70;;;;;;5053534;28;20175;-70
2023/10/22 06:59:21;;;;;;;6.18;1.90;;;29.30;37.10;;;;;;5053740;28;20204;-71
2023/10/22 07:01:49;;;;;;;9.55;2.15;;;30.00;35.00;;;;;;5050873;28;20271;-70
2023/10/22 07:04:17;;;;;;;10.40;2.20;;;29.30;35.80;;;;;;5052856;28;20325;-71
2023/10/22 07:06:46;;;;;;;9.93;2.53;;;29.70;35.30;;;;;;5052201;28;21916;-72
2023/10/22 07:09:13;;;;;;;8.60;2.33;;;30.40;34.40;;;;;;5063426;28;20537;-70
2023/10/22 07:11:41;;;;;;;7.73;1.70;;;29.80;34.80;;;;;;5047234;28;20212;-71
2023/10/22 07:14:08;;;;;;;9.70;2.53;;;30.30;34.70;;;;;;5046792;28;20187;-68
2023/10/22 07:16:35;;;;;;;11.60;2.38;;;30.50;34.20;;;;;;5053091;28;20650;-68
2023/10/22 07:19:03;;;;;;;5.88;2.33;;;29.90;34.10;;;;;;5053242;28;20247;-69
2023/10/22 07:21:30;;;;;;;7.67;2.10;;;29.90;33.10;;;;;;5052745;28;20692;-69
2023/10/22 07:23:58;;;;;;;10.07;2.60;;;29.60;33.30;;;;;;5052122;28;20197;-69
2023/10/22 07:26:26;;;;;;;7.97;2.90;;;29.90;33.30;;;;;;5053188;28;20180;-69
2023/10/22 07:28:53;;;;;;;7.97;2.50;;;30.30;32.80;;;;;;5052090;28;20510;-67
2023/10/22 07:31:20;;;;;;;12.30;2.90;;;28.80;34.90;;;;;;5053064;28;20536;-71
2023/10/22 07:33:50;;;;;;;12.87;3.00;;;27.30;38.80;;;;;;5052730;28;20206;-70
2023/10/22 07:36:17;;;;;;;8.10;2.60;;;27.20;40.10;;;;;;5053072;28;20193;-71
2023/10/22 07:38:45;;;;;;;14.93;3.67;;;26.90;40.50;;;;;;5052851;28;20219;-69
2023/10/22 07:41:15;;;;;;;9.43;3.07;;;25.80;42.80;;;;;;5052941;28;20203;-72
2023/10/22 07:43:43;;;;;;;11.80;2.90;;;25.30;43.50;;;;;;5036237;28;20180;-69
2023/10/22 07:46:10;;;;;;;11.80;2.97;;;24.80;45.00;;;;;;5052974;28;20259;-71
2023/10/22 07:48:38;;;;;;;12.37;2.87;;;24.70;45.80;;;;;;5062211;28;20179;-69
2023/10/22 07:51:13;;;;;;;10.07;3.37;;;24.70;45.40;;;;;;5061582;28;20187;-71
2023/10/22 07:53:40;;;;;;;9.27;3.40;;;24.50;46.30;;;;;;5050777;28;20191;-69
2023/10/22 07:56:09;;;;;;;11.20;3.47;;;24.40;47.00;;;;;;5052415;28;20186;-70
2023/10/22 07:58:37;;;;;;;12.73;3.17;;;24.10;47.10;;;;;;5051581;28;20266;-68
2023/10/22 08:01:06;;;;;;;9.87;2.93;;;24.20;47.70;;;;;;5052725;28;20207;-72
2023/10/22 08:03:34;;;;;;;10.60;3.13;;;24.30;47.40;;;;;;5051514;28;20182;-69
2023/10/22 08:06:04;;;;;;;8.80;2.77;;;24.00;46.60;;;;;;5052578;28;20266;-68
2023/10/22 08:08:31;;;;;;;8.33;2.97;;;23.90;47.50;;;;;;5052354;28;20201;-69
2023/10/22 08:11:05;;;;;;;11.40;2.63;;;23.90;47.30;;;;;;5052488;28;20180;-68
2023/10/22 08:13:33;;;;;;;9.23;2.57;;;23.80;47.30;;;;;;5052526;28;20188;-68
2023/10/22 08:16:05;;;;;;;9.23;2.90;;;23.80;46.60;;;;;;5052648;28;20240;-72
2023/10/22 08:18:32;;;;;;;10.13;2.90;;;23.70;46.40;;;;;;5052436;28;20208;-71
2023/10/22 08:21:09;;;;;;;9.93;2.67;;;23.60;46.30;;;;;;5052471;28;20610;-71
2023/10/22 08:23:38;;;;;;;8.50;2.80;;;23.60;45.20;;;;;;5051974;28;20184;-69
2023/10/22 08:26:06;;;;;;;7.03;2.70;;;23.60;43.40;;;;;;5039188;28;20175;-69
2023/10/22 08:28:35;;;;;;;13.10;3.00;;;23.60;42.20;;;;;;5052446;28;20183;-69
2023/10/22 08:31:02;;;;;;;13.53;2.90;;;23.60;43.80;;;;;;5052842;28;20198;-71
2023/10/22 08:33:31;;;;;;;5.60;2.13;;;23.60;37.90;;;;;;5052002;28;20187;-70
2023/10/22 08:36:08;;;;;;;5.47;1.40;;;23.60;36.40;;;;;;5060692;28;20226;-71
2023/10/22 08:38:36;;;;;;;4.17;1.13;;;23.70;26.00;;;;;;5058453;28;20344;-69
2023/10/22 08:41:06;;;;;;;2.43;0.90;;;24.10;22.80;;;;;;5056271;28;20250;-68
2023/10/22 08:43:38;;;;;;;1.80;0.70;;;24.20;22.30;;;;;;5056448;28;20225;-68
2023/10/22 08:46:06;;;;;;;1.27;0.90;;;24.40;22.30;;;;;;5055059;28;20196;-68
2023/10/22 08:48:35;;;;;;;5.77;0.90;;;24.50;21.80;;;;;;5057100;28;20195;-68
2023/10/22 08:51:03;;;;;;;1.10;0.83;;;24.50;21.40;;;;;;5074314;28;20164;-71
2023/10/22 08:53:31;;;;;;;5.97;0.87;;;24.50;21.30;;;;;;5056679;28;20231;-75
2023/10/22 08:56:02;;;;;;;2.53;0.80;;;24.50;21.70;;;;;;5056443;28;20199;-74
2023/10/22 08:58:30;;;;;;;1.53;0.60;;;24.40;21.90;;;;;;5055339;28;20206;-71
2023/10/22 09:00:58;;;;;;;3.20;1.00;;;24.50;22.10;;;;;;5055519;28;20183;-73
2023/10/22 09:03:28;;;;;;;1.80;1.00;;;24.60;22.10;;;;;;5056410;28;20634;-72
2023/10/22 09:05:55;;;;;;;1.10;0.83;;;24.50;22.20;;;;;;5056438;28;20191;-71
2023/10/22 09:08:42;;;;;;;2.60;1.00;;;24.40;22.50;;;;;;5055173;28;20267;-70
2023/10/22 09:11:17;;;;;;;1.53;1.00;;;24.30;22.60;;;;;;5056027;28;20198;-73
2023/10/22 09:13:45;;;;;;;2.63;0.80;;;24.30;22.90;;;;;;5062441;28;20174;-76
2023/10/22 09:16:26;;;;;;;2.50;1.10;;;24.20;23.00;;;;;;5061964;28;20184;-71
2023/10/22 09:18:53;;;;;;;5.40;1.17;;;24.20;22.90;;;;;;5056518;28;20214;-75
2023/10/22 09:21:21;;;;;;;3.40;1.20;;;24.20;23.00;;;;;;5057011;28;20168;-76
2023/10/22 09:24:09;;;;;;;4.33;1.20;;;24.10;23.00;;;;;;5055740;28;20704;-75
2023/10/22 09:26:49;;;;;;;2.87;0.90;;;24.10;23.20;;;;;;5055504;28;20535;-77
2023/10/22 09:29:17;;;;;;;2.97;0.70;;;24.10;23.20;;;;;;5039644;28;20168;-74
2023/10/22 09:31:55;;;;;;;1.63;0.97;;;24.10;23.60;;;;;;5056611;28;20196;-79
2023/10/22 09:34:32;;;;;;;1.80;0.87;;;24.00;23.60;;;;;;5055335;28;20586;-71
2023/10/22 09:36:59;;;;;;;2.50;1.20;;;23.80;24.10;;;;;;5055497;28;20187;-74
2023/10/22 09:39:36;;;;;;;2.20;1.00;;;23.70;24.40;;;;;;5053828;28;20219;-72
2023/10/22 09:42:04;;;;;;;3.77;1.20;;;23.60;24.90;;;;;;5055648;28;20195;-73
2023/10/22 09:44:33;;;;;;;1.50;1.00;;;23.50;25.00;;;;;;5055345;28;20176;-73
2023/10/22 09:47:07;;;;;;;4.67;1.37;;;23.40;25.10;;;;;;5053251;28;20172;-73
2023/10/22 09:49:38;;;;;;;2.40;1.20;;;23.40;25.20;;;;;;5051342;28;20179;-73
2023/10/22 09:52:07;;;;;;;2.43;1.50;;;23.30;25.60;;;;;;5058543;28;20190;-73
2023/10/22 09:54:40;;;;;;;1.77;1.20;;;23.20;25.60;;;;;;5064523;28;20277;-72
2023/10/22 09:57:15;;;;;;;4.83;1.07;;;23.20;25.90;;;;;;5044908;28;20174;-70
2023/10/22 09:59:44;;;;;;;2.23;1.10;;;23.10;26.20;;;;;;5050821;28;20194;-69
2023/10/22 10:02:16;;;;;;;3.67;1.20;;;23.00;26.40;;;;;;5070296;28;20270;-77
2023/10/22 10:04:48;;;;;;;3.70;1.17;;;23.00;26.80;;;;;;5073029;28;20633;-76
2023/10/22 10:07:17;;;;;;;6.13;1.33;;;22.90;27.20;;;;;;5069797;28;20203;-73
2023/10/22 10:09:46;;;;;;;2.40;0.70;;;22.90;27.10;;;;;;5059871;28;20187;-73
2023/10/22 10:12:14;;;;;;;2.50;1.10;;;23.00;27.10;;;;;;5067522;28;20210;-70
2023/10/22 10:14:49;;;;;;;3.80;1.10;;;23.00;27.50;;;;;;5074446;28;20218;-72
2023/10/22 10:17:19;;;;;;;2.63;1.00;;;22.90;27.70;;;;;;5047106;28;20658;-71
2023/10/22 10:19:51;;;;;;;2.73;1.23;;;22.80;27.70;;;;;;5071839;28;20183;-70
2023/10/22 10:23:07;;;;;;;7.83;1.43;;;22.80;28.20;;;;;;5053080;28;20172;-69
2023/10/22 10:25:44;;;;;;;3.07;0.90;;;22.70;28.50;;;;;;5046501;28;20215;-68
2023/10/22 10:28:13;;;;;;;2.97;0.90;;;22.60;28.80;;;;;;5050091;28;20436;-73
2023/10/22 10:30:41;;;;;;;3.67;1.10;;;22.50;28.60;;;;;;5039919;28;20401;-70
2023/10/22 10:33:12;;;;;;;4.90;1.20;;;22.40;29.10;;;;;;5060405;28;20203;-70
2023/10/22 10:35:47;;;;;;;2.40;0.93;;;22.40;29.20;;;;;;5069226;28;20227;-73
2023/10/22 10:38:22;;;;;;;3.27;1.00;;;22.30;29.50;;;;;;5053853;28;20208;-71
2023/10/22 10:40:55;;;;;;;2.47;1.00;;;22.20;30.00;;;;;;5052368;28;20179;-71
2023/10/22 10:44:00;;;;;;;2.27;1.00;;;22.00;30.30;;;;;;5056008;28;20641;-71
2023/10/22 10:46:32;;;;;;;3.20;1.07;;;21.90;30.50;;;;;;5066592;28;20172;-69
2023/10/22 10:48:59;;;;;;;3.53;1.00;;;21.80;30.50;;;;;;5061254;28;20559;-71
2023/10/22 10:51:27;;;;;;;3.70;0.87;;;21.80;31.00;;;;;;5060098;28;20183;-67
2023/10/22 10:54:14;;;;;;;2.97;1.10;;;21.70;30.90;;;;;;5067219;28;20180;-70
2023/10/22 10:56:59;;;;;;;1.80;0.80;;;21.60;31.10;;;;;;5056522;28;20520;-71
2023/10/22 10:59:34;;;;;;;3.40;0.83;;;21.60;31.60;;;;;;5073461;28;20291;-72
2023/10/22 11:02:07;;;;;;;4.33;1.00;;;21.50;32.10;;;;;;5053970;28;20183;-68
2023/10/22 11:04:36;;;;;;;1.97;1.20;;;21.40;32.20;;;;;;5051293;28;20706;-70
2023/10/22 11:07:05;;;;;;;4.17;1.00;;;21.40;32.50;;;;;;5057753;28;20187;-71
2023/10/22 11:09:37;;;;;;;1.43;0.70;;;21.30;32.70;;;;;;5068913;28;20308;-69
2023/10/22 11:12:07;;;;;;;4.47;0.90;;;21.20;32.80;;;;;;5059322;28;20169;-68
2023/10/22 11:14:38;;;;;;;3.43;1.20;;;21.10;33.30;;;;;;5068109;28;20171;-68
2023/10/22 11:17:06;;;;;;;2.97;1.40;;;21.10;33.50;;;;;;5058183;28;20577;-69
2023/10/22 11:19:34;;;;;;;3.70;0.87;;;20.90;34.50;;;;;;5062199;28;20651;-70
2023/10/22 11:22:02;;;;;;;3.57;1.00;;;20.90;34.70;;;;;;5065816;28;20176;-71
2023/10/22 11:24:34;;;;;;;2.73;1.00;;;20.90;34.00;;;;;;5058700;28;20180;-69
2023/10/22 11:27:04;;;;;;;4.40;0.90;;;20.80;34.20;;;;;;5072891;28;20176;-67
2023/10/22 11:29:50;;;;;;;5.07;1.40;;;20.80;34.90;;;;;;5071850;28;20198;-71
2023/10/22 11:32:22;;;;;;;4.27;1.10;;;20.80;35.00;;;;;;5072811;28;20183;-70
2023/10/22 11:34:51;;;;;;;3.03;0.83;;;20.80;34.00;;;;;;5062167;28;20227;-67
2023/10/22 11:37:47;;;;;;;5.90;1.20;;;20.80;34.10;;;;;;5060017;28;20222;-69
2023/10/22 11:40:30;;;;;;;3.03;1.23;;;20.80;34.40;;;;;;5052679;28;20199;-76
2023/10/22 11:43:03;;;;;;;2.07;1.20;;;20.90;34.10;;;;;;5062949;28;20195;-68
2023/10/22 11:45:34;;;;;;;1.70;1.10;;;20.80;34.60;;;;;;5061462;28;20194;-70
2023/10/22 11:48:18;;;;;;;3.30;1.37;;;20.70;35.20;;;;;;5052794;28;20182;-72
2023/10/22 11:50:48;;;;;;;1.80;1.07;;;20.60;35.70;;;;;;5050186;28;20524;-66
2023/10/22 11:53:19;;;;;;;1.83;1.13;;;20.50;35.90;;;;;;5046790;28;20199;-67
2023/10/22 11:55:46;;;;;;;2.20;0.90;;;20.50;35.90;;;;;;5046232;28;20576;-70
2023/10/22 11:58:27;;;;;;;2.17;1.10;;;20.40;35.60;;;;;;5052160;28;20301;-69
2023/10/22 12:00:55;;;;;;;3.30;1.20;;;20.30;36.40;;;;;;5051542;28;20191;-72
2023/10/22 12:03:23;;;;;;;2.80;0.97;;;20.30;37.20;;;;;;5051514;28;20183;-68
2023/10/22 12:05:50;;;;;;;1.87;1.00;;;20.10;38.10;;;;;;5049888;28;20192;-71
2023/10/22 12:08:18;;;;;;;4.33;1.30;;;20.00;38.30;;;;;;5052084;28;20210;-70
2023/10/22 12:10:45;;;;;;;2.83;1.30;;;20.00;38.80;;;;;;5051957;28;20198;-70
2023/10/22 12:13:12;;;;;;;1.50;1.00;;;19.90;39.00;;;;;;5051370;28;20657;-70
2023/10/22 12:15:40;;;;;;;3.57;1.10;;;19.80;38.80;;;;;;5051434;28;20192;-70
2023/10/22 12:18:09;;;;;;;3.63;1.10;;;19.70;38.80;;;;;;5049391;28;20212;-68
2023/10/22 12:20:37;;;;;;;2.87;1.13;;;19.70;38.90;;;;;;5044498;28;20183;-67
2023/10/22 12:23:05;;;;;;;3.00;1.23;;;19.70;39.10;;;;;;5052421;28;20660;-67
2023/10/22 12:25:33;;;;;;;4.00;1.30;;;19.60;39.60;;;;;;5051677;28;20183;-69
2023/10/22 12:28:00;;;;;;;5.17;1.63;;;19.60;39.70;;;;;;5058998;28;20190;-69
2023/10/22 12:30:27;;;;;;;2.90;1.20;;;19.50;40.30;;;;;;5061442;28;20625;-71
2023/10/22 12:32:55;;;;;;;3.30;1.17;;;19.50;40.60;;;;;;5049147;28;20549;-67
2023/10/22 12:35:22;;;;;;;1.63;1.07;;;19.40;40.80;;;;;;5064015;28;20234;-69
2023/10/22 12:37:50;;;;;;;1.47;0.90;;;19.40;40.90;;;;;;5071773;28;20280;-69
2023/10/22 12:40:17;;;;;;;2.27;1.17;;;19.30;40.90;;;;;;5053964;28;20338;-67
2023/10/22 12:42:45;;;;;;;2.63;1.00;;;19.30;41.00;;;;;;5054930;28;20180;-68
2023/10/22 12:45:13;;;;;;;2.53;0.97;;;19.20;41.60;;;;;;5072393;28;20240;-72
2023/10/22 12:47:41;;;;;;;4.83;1.10;;;19.20;42.30;;;;;;5054588;28;20520;-69
2023/10/22 12:50:09;;;;;;;1.90;1.10;;;19.10;42.40;;;;;;5072230;28;20671;-67
2023/10/22 12:52:37;;;;;;;2.40;1.10;;;19.10;42.50;;;;;;5067143;28;20191;-67
2023/10/22 12:55:05;;;;;;;1.90;0.80;;;19.10;41.40;;;;;;5060727;28;20225;-70
2023/10/22 12:57:32;;;;;;;1.73;1.00;;;19.10;42.10;;;;;;5050854;28;20186;-67
2023/10/22 13:00:03;;;;;;;4.03;1.37;;;19.00;41.70;;;;;;5072024;28;20321;-68
2023/10/22 13:02:33;;;;;;;2.10;1.00;;;19.00;42.00;;;;;;5063578;28;20186;-70
2023/10/22 13:05:00;;;;;;;2.33;0.90;;;19.00;41.50;;;;;;5050406;28;20180;-66